sensor_id;sensor_type;location;lat;lon;timestamp;pressure;altitude;pressure_sealevel;temperature;humidity
22649;BME280;11491;41.942;24.220;2023-05-02T00:00:51;90337.88;;;5.57;88.99
22649;BME280;11491;41.942;24.220;2023-05-02T00:03:19;90335.09;;;5.62;89.52
22649;BME280;11491;41.942;24.220;2023-05-02T00:05:45;90336.41;;;5.73;87.18
22649;BME280;11491;41.942;24.220;2023-05-02T00:08:13;90334.97;;;5.67;87.42
22649;BME280;11491;41.942;24.220;2023-05-02T00:10:40;90333.28;;;5.49;88.55
22649;BME280;11491;41.942;24.220;2023-05-02T00:13:07;90332.00;;;5.46;89.04
22649;BME280;11491;41.942;24.220;2023-05-02T00:15:34;90338.13;;;5.47;88.90
22649;BME280;11491;41.942;24.220;2023-05-02T00:18:00;90329.69;;;5.45;87.18
22649;BME280;11491;41.942;24.220;2023-05-02T00:20:27;90345.09;;;5.20;88.30
22649;BME280;11491;41.942;24.220;2023-05-02T00:22:54;90341.56;;;5.11;89.34
22649;BME280;11491;41.942;24.220;2023-05-02T00:25:23;90341.94;;;5.18;89.26
22649;BME280;11491;41.942;24.220;2023-05-02T00:27:49;90341.94;;;5.18;88.92
22649;BME280;11491;41.942;24.220;2023-05-02T00:30:17;90339.38;;;5.27;88.48
22649;BME280;11491;41.942;24.220;2023-05-02T00:32:45;90344.09;;;5.16;88.62
22649;BME280;11491;41.942;24.220;2023-05-02T00:35:12;90351.00;;;5.17;89.08
22649;BME280;11491;41.942;24.220;2023-05-02T00:37:39;90348.81;;;5.19;88.91
22649;BME280;11491;41.942;24.220;2023-05-02T00:40:06;90351.56;;;5.14;89.57
22649;BME280;11491;41.942;24.220;2023-05-02T00:42:34;90345.69;;;5.17;89.79
22649;BME280;11491;41.942;24.220;2023-05-02T00:45:02;90347.00;;;5.28;88.09
22649;BME280;11491;41.942;24.220;2023-05-02T00:47:32;90349.19;;;5.26;87.56
22649;BME280;11491;41.942;24.220;2023-05-02T00:49:59;90344.72;;;5.13;88.93
22649;BME280;11491;41.942;24.220;2023-05-02T00:52:25;90344.72;;;5.13;88.43
22649;BME280;11491;41.942;24.220;2023-05-02T00:54:53;90349.41;;;5.16;88.62
22649;BME280;11491;41.942;24.220;2023-05-02T00:57:20;90339.78;;;5.20;88.51
22649;BME280;11491;41.942;24.220;2023-05-02T00:59:49;90345.91;;;5.07;88.22
22649;BME280;11491;41.942;24.220;2023-05-02T01:02:25;90349.91;;;5.18;87.58
22649;BME280;11491;41.942;24.220;2023-05-02T01:04:59;90339.91;;;5.15;86.42
22649;BME280;11491;41.942;24.220;2023-05-02T01:07:45;90348.53;;;5.07;86.34
22649;BME280;11491;41.942;24.220;2023-05-02T01:10:17;90344.94;;;5.03;87.19
22649;BME280;11491;41.942;24.220;2023-05-02T01:12:52;90345.22;;;4.65;87.78
22649;BME280;11491;41.942;24.220;2023-05-02T01:15:22;90345.41;;;4.54;89.09
22649;BME280;11491;41.942;24.220;2023-05-02T01:17:49;90346.00;;;4.51;90.11
22649;BME280;11491;41.942;24.220;2023-05-02T01:20:20;90340.31;;;4.44;90.62
22649;BME280;11491;41.942;24.220;2023-05-02T01:22:48;90344.84;;;4.58;90.58
22649;BME280;11491;41.942;24.220;2023-05-02T01:25:25;90330.78;;;4.71;89.06
22649;BME280;11491;41.942;24.220;2023-05-02T01:28:13;90332.25;;;4.77;88.78
22649;BME280;11491;41.942;24.220;2023-05-02T01:30:46;90332.44;;;4.67;88.40
22649;BME280;11491;41.942;24.220;2023-05-02T01:33:16;90340.03;;;4.60;89.20
22649;BME280;11491;41.942;24.220;2023-05-02T01:35:45;90338.94;;;4.61;89.54
22649;BME280;11491;41.942;24.220;2023-05-02T01:38:15;90321.50;;;4.60;88.85
22649;BME280;11491;41.942;24.220;2023-05-02T01:40:44;90336.97;;;4.66;89.61
22649;BME280;11491;41.942;24.220;2023-05-02T01:43:13;90340.69;;;4.65;89.27
22649;BME280;11491;41.942;24.220;2023-05-02T01:45:42;90344.06;;;4.57;89.87
22649;BME280;11491;41.942;24.220;2023-05-02T01:48:12;90342.84;;;4.63;88.70
22649;BME280;11491;41.942;24.220;2023-05-02T01:50:40;90343.94;;;4.62;88.39
22649;BME280;11491;41.942;24.220;2023-05-02T01:53:09;90348.16;;;4.63;88.46
22649;BME280;11491;41.942;24.220;2023-05-02T01:55:42;90336.56;;;4.73;88.25
22649;BME280;11491;41.942;24.220;2023-05-02T01:58:10;90338.34;;;4.64;87.72
22649;BME280;11491;41.942;24.220;2023-05-02T02:00:39;90342.19;;;4.58;88.09
22649;BME280;11491;41.942;24.220;2023-05-02T02:03:11;90341.91;;;4.45;88.54
22649;BME280;11491;41.942;24.220;2023-05-02T02:05:39;90346.69;;;4.43;87.88
22649;BME280;11491;41.942;24.220;2023-05-02T02:08:07;90344.03;;;4.29;87.96
22649;BME280;11491;41.942;24.220;2023-05-02T02:10:35;90347.41;;;4.35;88.20
22649;BME280;11491;41.942;24.220;2023-05-02T02:13:12;90338.75;;;4.43;87.92
22649;BME280;11491;41.942;24.220;2023-05-02T02:15:44;90337.75;;;4.39;87.79
22649;BME280;11491;41.942;24.220;2023-05-02T02:18:18;90335.22;;;4.34;88.53
22649;BME280;11491;41.942;24.220;2023-05-02T02:20:47;90347.78;;;4.42;87.47
22649;BME280;11491;41.942;24.220;2023-05-02T02:23:15;90336.22;;;4.38;87.85
22649;BME280;11491;41.942;24.220;2023-05-02T02:25:44;90341.09;;;4.31;88.47
22649;BME280;11491;41.942;24.220;2023-05-02T02:28:11;90347.56;;;4.39;88.22
22649;BME280;11491;41.942;24.220;2023-05-02T02:30:38;90348.56;;;4.43;87.48
22649;BME280;11491;41.942;24.220;2023-05-02T02:33:05;90346.19;;;4.41;86.42
22649;BME280;11491;41.942;24.220;2023-05-02T02:35:37;90341.50;;;4.24;87.62
22649;BME280;11491;41.942;24.220;2023-05-02T02:38:12;90335.13;;;4.12;89.00
22649;BME280;11491;41.942;24.220;2023-05-02T02:40:43;90340.91;;;4.14;88.13
22649;BME280;11491;41.942;24.220;2023-05-02T02:43:19;90340.72;;;4.24;87.30
22649;BME280;11491;41.942;24.220;2023-05-02T02:45:56;90331.88;;;4.15;86.45
22649;BME280;11491;41.942;24.220;2023-05-02T02:48:28;90335.31;;;4.01;87.40
22649;BME280;11491;41.942;24.220;2023-05-02T02:51:07;90338.66;;;3.93;88.31
22649;BME280;11491;41.942;24.220;2023-05-02T02:53:46;90340.88;;;4.00;89.13
22649;BME280;11491;41.942;24.220;2023-05-02T02:56:23;90341.09;;;4.03;87.89
22649;BME280;11491;41.942;24.220;2023-05-02T02:58:55;90337.97;;;4.01;87.47
22649;BME280;11491;41.942;24.220;2023-05-02T03:01:24;90337.47;;;3.99;87.95
22649;BME280;11491;41.942;24.220;2023-05-02T03:03:53;90347.34;;;3.94;88.06
22649;BME280;11491;41.942;24.220;2023-05-02T03:06:23;90344.59;;;3.85;88.48
22649;BME280;11491;41.942;24.220;2023-05-02T03:08:50;90342.81;;;3.66;88.65
22649;BME280;11491;41.942;24.220;2023-05-02T03:11:17;90348.31;;;3.84;88.12
22649;BME280;11491;41.942;24.220;2023-05-02T03:13:43;90349.41;;;3.50;89.67
22649;BME280;11491;41.942;24.220;2023-05-02T03:16:32;90349.81;;;3.57;90.16
22649;BME280;11491;41.942;24.220;2023-05-02T03:18:59;90350.81;;;3.61;90.42
22649;BME280;11491;41.942;24.220;2023-05-02T03:21:27;90350.88;;;3.75;89.81
22649;BME280;11491;41.942;24.220;2023-05-02T03:23:56;90355.34;;;3.75;88.64
22649;BME280;11491;41.942;24.220;2023-05-02T03:26:23;90354.78;;;3.78;89.50
22649;BME280;11491;41.942;24.220;2023-05-02T03:28:50;90358.31;;;3.87;88.84
22649;BME280;11491;41.942;24.220;2023-05-02T03:31:16;90357.75;;;3.90;88.35
22649;BME280;11491;41.942;24.220;2023-05-02T03:33:43;90363.03;;;3.90;87.48
22649;BME280;11491;41.942;24.220;2023-05-02T03:36:10;90365.84;;;3.80;88.63
22649;BME280;11491;41.942;24.220;2023-05-02T03:38:38;90369.47;;;3.84;88.86
22649;BME280;11491;41.942;24.220;2023-05-02T03:41:05;90370.47;;;3.88;88.31
22649;BME280;11491;41.942;24.220;2023-05-02T03:43:32;90369.97;;;3.86;87.94
22649;BME280;11491;41.942;24.220;2023-05-02T03:46:04;90369.13;;;3.91;88.54
22649;BME280;11491;41.942;24.220;2023-05-02T03:48:32;90372.63;;;3.86;88.99
22649;BME280;11491;41.942;24.220;2023-05-02T03:51:00;90379.38;;;3.92;89.04
22649;BME280;11491;41.942;24.220;2023-05-02T03:53:27;90375.56;;;3.84;88.30
22649;BME280;11491;41.942;24.220;2023-05-02T03:55:55;90374.78;;;3.84;88.66
22649;BME280;11491;41.942;24.220;2023-05-02T03:58:22;90379.56;;;3.82;89.40
22649;BME280;11491;41.942;24.220;2023-05-02T04:00:49;90375.78;;;3.88;90.21
22649;BME280;11491;41.942;24.220;2023-05-02T04:03:17;90384.91;;;3.96;90.46
22649;BME280;11491;41.942;24.220;2023-05-02T04:05:43;90381.47;;;4.09;89.40
22649;BME280;11491;41.942;24.220;2023-05-02T04:08:10;90380.69;;;4.22;88.12
22649;BME280;11491;41.942;24.220;2023-05-02T04:10:38;90384.66;;;4.25;86.73
22649;BME280;11491;41.942;24.220;2023-05-02T04:13:06;90387.31;;;4.25;87.44
22649;BME280;11491;41.942;24.220;2023-05-02T04:15:32;90380.91;;;4.26;88.34
22649;BME280;11491;41.942;24.220;2023-05-02T04:17:59;90388.66;;;4.36;89.65
22649;BME280;11491;41.942;24.220;2023-05-02T04:20:26;90389.56;;;4.45;89.56
22649;BME280;11491;41.942;24.220;2023-05-02T04:22:53;90387.22;;;4.58;89.41
22649;BME280;11491;41.942;24.220;2023-05-02T04:25:19;90382.09;;;4.75;88.41
22649;BME280;11491;41.942;24.220;2023-05-02T04:27:46;90375.75;;;4.99;86.84
22649;BME280;11491;41.942;24.220;2023-05-02T04:30:14;90376.34;;;5.09;87.25
22649;BME280;11491;41.942;24.220;2023-05-02T04:32:41;90373.38;;;5.11;87.63
22649;BME280;11491;41.942;24.220;2023-05-02T04:35:08;90370.63;;;5.16;88.56
22649;BME280;11491;41.942;24.220;2023-05-02T04:37:35;90365.84;;;5.40;87.32
22649;BME280;11491;41.942;24.220;2023-05-02T04:40:05;90372.47;;;5.52;87.03
22649;BME280;11491;41.942;24.220;2023-05-02T04:42:33;90371.03;;;5.68;87.84
22649;BME280;11491;41.942;24.220;2023-05-02T04:45:00;90370.59;;;5.75;87.74
22649;BME280;11491;41.942;24.220;2023-05-02T04:47:28;90368.34;;;5.91;86.92
22649;BME280;11491;41.942;24.220;2023-05-02T04:49:54;90371.63;;;6.10;85.97
22649;BME280;11491;41.942;24.220;2023-05-02T04:52:21;90373.88;;;6.25;85.85
22649;BME280;11491;41.942;24.220;2023-05-02T04:54:48;90373.19;;;6.42;85.16
22649;BME280;11491;41.942;24.220;2023-05-02T04:57:15;90371.50;;;6.55;85.48
22649;BME280;11491;41.942;24.220;2023-05-02T04:59:41;90369.66;;;6.64;85.62
22649;BME280;11491;41.942;24.220;2023-05-02T05:02:08;90372.22;;;6.87;86.45
22649;BME280;11491;41.942;24.220;2023-05-02T05:04:38;90368.19;;;6.98;86.13
22649;BME280;11491;41.942;24.220;2023-05-02T05:07:04;90375.09;;;7.17;85.92
22649;BME280;11491;41.942;24.220;2023-05-02T05:09:31;90368.25;;;7.33;84.57
22649;BME280;11491;41.942;24.220;2023-05-02T05:11:58;90371.34;;;7.35;85.61
22649;BME280;11491;41.942;24.220;2023-05-02T05:14:26;90371.22;;;7.49;84.30
22649;BME280;11491;41.942;24.220;2023-05-02T05:16:53;90374.19;;;7.65;84.37
22649;BME280;11491;41.942;24.220;2023-05-02T05:19:19;90375.44;;;7.76;84.79
22649;BME280;11491;41.942;24.220;2023-05-02T05:21:47;90375.78;;;7.66;87.21
22649;BME280;11491;41.942;24.220;2023-05-02T05:24:14;90366.66;;;7.84;85.48
22649;BME280;11491;41.942;24.220;2023-05-02T05:26:41;90366.00;;;8.05;83.79
22649;BME280;11491;41.942;24.220;2023-05-02T05:29:08;90372.72;;;8.19;83.92
22649;BME280;11491;41.942;24.220;2023-05-02T05:31:35;90352.22;;;8.20;83.86
22649;BME280;11491;41.942;24.220;2023-05-02T05:34:02;90368.25;;;8.58;82.75
22649;BME280;11491;41.942;24.220;2023-05-02T05:36:29;90372.38;;;8.86;82.09
22649;BME280;11491;41.942;24.220;2023-05-02T05:38:58;90368.19;;;9.05;81.66
22649;BME280;11491;41.942;24.220;2023-05-02T05:41:25;90371.03;;;9.30;80.17
22649;BME280;11491;41.942;24.220;2023-05-02T05:43:52;90368.03;;;9.53;77.98
22649;BME280;11491;41.942;24.220;2023-05-02T05:46:18;90370.91;;;9.68;76.56
22649;BME280;11491;41.942;24.220;2023-05-02T05:48:45;90373.38;;;9.74;75.91
22649;BME280;11491;41.942;24.220;2023-05-02T05:51:12;90375.31;;;9.85;76.28
22649;BME280;11491;41.942;24.220;2023-05-02T05:53:39;90379.94;;;9.97;77.99
22649;BME280;11491;41.942;24.220;2023-05-02T05:56:10;90378.69;;;10.16;78.60
22649;BME280;11491;41.942;24.220;2023-05-02T05:58:37;90380.50;;;10.24;76.95
22649;BME280;11491;41.942;24.220;2023-05-02T06:01:05;90379.81;;;10.48;76.64
22649;BME280;11491;41.942;24.220;2023-05-02T06:03:32;90377.53;;;10.71;76.56
22649;BME280;11491;41.942;24.220;2023-05-02T06:05:58;90371.06;;;10.84;76.48
22649;BME280;11491;41.942;24.220;2023-05-02T06:08:25;90377.09;;;10.93;74.14
22649;BME280;11491;41.942;24.220;2023-05-02T06:10:52;90359.38;;;11.01;73.32
22649;BME280;11491;41.942;24.220;2023-05-02T06:13:20;90383.56;;;11.17;75.58
22649;BME280;11491;41.942;24.220;2023-05-02T06:15:47;90379.97;;;11.37;71.33
22649;BME280;11491;41.942;24.220;2023-05-02T06:18:13;90368.84;;;11.35;72.15
22649;BME280;11491;41.942;24.220;2023-05-02T06:20:40;90378.16;;;11.66;71.86
22649;BME280;11491;41.942;24.220;2023-05-02T06:23:07;90370.78;;;11.75;73.02
22649;BME280;11491;41.942;24.220;2023-05-02T06:25:36;90375.91;;;11.93;74.09
22649;BME280;11491;41.942;24.220;2023-05-02T06:28:03;90361.78;;;12.08;72.91
22649;BME280;11491;41.942;24.220;2023-05-02T06:30:31;90361.50;;;12.25;72.71
22649;BME280;11491;41.942;24.220;2023-05-02T06:32:58;90358.94;;;12.45;72.50
22649;BME280;11491;41.942;24.220;2023-05-02T06:35:24;90368.91;;;12.60;72.40
22649;BME280;11491;41.942;24.220;2023-05-02T06:37:51;90368.16;;;12.76;71.66
22649;BME280;11491;41.942;24.220;2023-05-02T06:40:18;90358.63;;;12.94;71.96
22649;BME280;11491;41.942;24.220;2023-05-02T06:42:45;90349.13;;;13.12;71.31
22649;BME280;11491;41.942;24.220;2023-05-02T06:45:12;90354.84;;;13.27;71.22
22649;BME280;11491;41.942;24.220;2023-05-02T06:47:40;90342.00;;;13.36;69.33
22649;BME280;11491;41.942;24.220;2023-05-02T06:50:07;90360.59;;;13.61;68.26
22649;BME280;11491;41.942;24.220;2023-05-02T06:52:34;90360.19;;;13.78;67.93
22649;BME280;11491;41.942;24.220;2023-05-02T06:55:01;90355.56;;;13.94;68.12
22649;BME280;11491;41.942;24.220;2023-05-02T06:57:28;90349.78;;;14.12;67.04
22649;BME280;11491;41.942;24.220;2023-05-02T06:59:54;90352.81;;;14.10;66.82
22649;BME280;11491;41.942;24.220;2023-05-02T07:02:21;90358.53;;;14.28;66.73
22649;BME280;11491;41.942;24.220;2023-05-02T07:04:49;90350.97;;;14.34;64.28
22649;BME280;11491;41.942;24.220;2023-05-02T07:07:16;90343.97;;;14.29;64.89
22649;BME280;11491;41.942;24.220;2023-05-02T07:09:44;90354.16;;;14.39;65.15
22649;BME280;11491;41.942;24.220;2023-05-02T07:12:11;90346.22;;;14.27;60.63
22649;BME280;11491;41.942;24.220;2023-05-02T07:14:38;90345.50;;;14.30;65.28
22649;BME280;11491;41.942;24.220;2023-05-02T07:17:05;90348.81;;;14.43;65.43
22649;BME280;11491;41.942;24.220;2023-05-02T07:19:31;90342.97;;;14.57;64.72
22649;BME280;11491;41.942;24.220;2023-05-02T07:21:59;90346.34;;;14.73;61.71
22649;BME280;11491;41.942;24.220;2023-05-02T07:24:26;90340.69;;;14.78;64.38
22649;BME280;11491;41.942;24.220;2023-05-02T07:26:53;90346.69;;;14.72;63.88
22649;BME280;11491;41.942;24.220;2023-05-02T07:29:19;90341.53;;;14.63;63.23
22649;BME280;11491;41.942;24.220;2023-05-02T07:31:46;90350.94;;;14.73;65.33
22649;BME280;11491;41.942;24.220;2023-05-02T07:34:13;90343.03;;;14.60;62.96
22649;BME280;11491;41.942;24.220;2023-05-02T07:36:40;90349.22;;;14.61;67.11
22649;BME280;11491;41.942;24.220;2023-05-02T07:39:08;90349.25;;;14.64;67.26
22649;BME280;11491;41.942;24.220;2023-05-02T07:41:34;90353.28;;;14.74;65.60
22649;BME280;11491;41.942;24.220;2023-05-02T07:44:01;90354.53;;;14.80;65.49
22649;BME280;11491;41.942;24.220;2023-05-02T07:46:28;90347.25;;;14.81;66.10
22649;BME280;11491;41.942;24.220;2023-05-02T07:48:55;90359.81;;;14.96;66.30
22649;BME280;11491;41.942;24.220;2023-05-02T07:51:22;90361.63;;;14.89;64.74
22649;BME280;11491;41.942;24.220;2023-05-02T07:53:50;90355.66;;;14.79;63.95
22649;BME280;11491;41.942;24.220;2023-05-02T07:56:21;90356.53;;;14.83;64.83
22649;BME280;11491;41.942;24.220;2023-05-02T07:58:48;90364.03;;;14.74;64.58
22649;BME280;11491;41.942;24.220;2023-05-02T08:01:15;90358.19;;;14.92;64.71
22649;BME280;11491;41.942;24.220;2023-05-02T08:03:42;90356.88;;;15.05;63.88
22649;BME280;11491;41.942;24.220;2023-05-02T08:06:09;90358.53;;;14.90;64.63
22649;BME280;11491;41.942;24.220;2023-05-02T08:08:37;90361.91;;;14.83;63.88
22649;BME280;11491;41.942;24.220;2023-05-02T08:11:04;90358.06;;;14.84;64.36
22649;BME280;11491;41.942;24.220;2023-05-02T08:13:32;90368.97;;;14.92;64.84
22649;BME280;11491;41.942;24.220;2023-05-02T08:15:59;90366.63;;;14.90;64.21
22649;BME280;11491;41.942;24.220;2023-05-02T08:18:26;90378.75;;;14.80;64.47
22649;BME280;11491;41.942;24.220;2023-05-02T08:20:54;90370.31;;;14.82;63.78
22649;BME280;11491;41.942;24.220;2023-05-02T08:23:22;90367.94;;;14.77;65.78
22649;BME280;11491;41.942;24.220;2023-05-02T08:25:49;90378.09;;;14.64;64.04
22649;BME280;11491;41.942;24.220;2023-05-02T08:28:16;90369.44;;;14.55;67.47
22649;BME280;11491;41.942;24.220;2023-05-02T08:30:44;90374.66;;;14.86;67.43
22649;BME280;11491;41.942;24.220;2023-05-02T08:33:11;90370.38;;;14.85;64.60
22649;BME280;11491;41.942;24.220;2023-05-02T08:35:38;90370.50;;;14.93;66.46
22649;BME280;11491;41.942;24.220;2023-05-02T08:38:05;90371.94;;;14.86;63.79
22649;BME280;11491;41.942;24.220;2023-05-02T08:40:34;90371.81;;;14.79;66.87
22649;BME280;11491;41.942;24.220;2023-05-02T08:43:02;90369.13;;;14.79;63.89
22649;BME280;11491;41.942;24.220;2023-05-02T08:45:30;90380.28;;;15.01;67.15
22649;BME280;11491;41.942;24.220;2023-05-02T08:48:05;90371.94;;;15.33;64.18
22649;BME280;11491;41.942;24.220;2023-05-02T08:50:35;90380.31;;;15.27;62.57
22649;BME280;11491;41.942;24.220;2023-05-02T08:53:03;90357.97;;;15.23;63.67
22649;BME280;11491;41.942;24.220;2023-05-02T08:55:31;90369.28;;;15.59;65.01
22649;BME280;11491;41.942;24.220;2023-05-02T08:57:59;90373.56;;;15.87;64.41
22649;BME280;11491;41.942;24.220;2023-05-02T09:00:28;90376.97;;;16.10;62.47
22649;BME280;11491;41.942;24.220;2023-05-02T09:03:05;90364.81;;;16.24;61.89
22649;BME280;11491;41.942;24.220;2023-05-02T09:05:37;90363.72;;;15.98;61.02
22649;BME280;11491;41.942;24.220;2023-05-02T09:08:06;90367.97;;;15.73;62.33
22649;BME280;11491;41.942;24.220;2023-05-02T09:10:34;90286.88;;;15.05;63.74
22649;BME280;11491;41.942;24.220;2023-05-02T09:13:27;90367.84;;;15.92;62.01
22649;BME280;11491;41.942;24.220;2023-05-02T09:15:56;90372.13;;;15.93;61.03
22649;BME280;11491;41.942;24.220;2023-05-02T09:18:27;90355.41;;;16.10;62.25
22649;BME280;11491;41.942;24.220;2023-05-02T09:20:54;90361.88;;;16.36;62.10
22649;BME280;11491;41.942;24.220;2023-05-02T09:23:31;90326.38;;;16.34;62.42
22649;BME280;11491;41.942;24.220;2023-05-02T09:25:58;90354.66;;;16.13;61.98
22649;BME280;11491;41.942;24.220;2023-05-02T09:28:37;90337.56;;;16.32;63.51
22649;BME280;11491;41.942;24.220;2023-05-02T09:31:06;90351.53;;;16.11;62.14
22649;BME280;11491;41.942;24.220;2023-05-02T09:33:36;90355.19;;;15.96;61.55
22649;BME280;11491;41.942;24.220;2023-05-02T09:36:04;90351.66;;;16.22;64.59
22649;BME280;11491;41.942;24.220;2023-05-02T09:38:32;90354.59;;;16.40;63.28
22649;BME280;11491;41.942;24.220;2023-05-02T09:40:59;90350.09;;;16.18;60.91
22649;BME280;11491;41.942;24.220;2023-05-02T09:43:28;90353.19;;;16.20;62.43
22649;BME280;11491;41.942;24.220;2023-05-02T09:45:59;90357.94;;;16.64;64.33
22649;BME280;11491;41.942;24.220;2023-05-02T09:48:27;90356.25;;;16.82;62.61
22649;BME280;11491;41.942;24.220;2023-05-02T09:50:56;90352.13;;;16.62;60.51
22649;BME280;11491;41.942;24.220;2023-05-02T09:53:24;90346.25;;;16.19;61.20
22649;BME280;11491;41.942;24.220;2023-05-02T09:56:02;90354.22;;;15.81;64.00
22649;BME280;11491;41.942;24.220;2023-05-02T09:58:30;90346.56;;;16.13;66.21
22649;BME280;11491;41.942;24.220;2023-05-02T10:00:57;90343.78;;;16.74;63.44
22649;BME280;11491;41.942;24.220;2023-05-02T10:03:25;90340.84;;;16.86;62.14
22649;BME280;11491;41.942;24.220;2023-05-02T10:05:52;90348.66;;;16.61;61.34
22649;BME280;11491;41.942;24.220;2023-05-02T10:08:23;90343.72;;;16.33;62.00
22649;BME280;11491;41.942;24.220;2023-05-02T10:10:52;90353.28;;;16.27;62.36
22649;BME280;11491;41.942;24.220;2023-05-02T10:13:20;90361.09;;;15.75;64.37
22649;BME280;11491;41.942;24.220;2023-05-02T10:15:53;90364.06;;;15.70;65.39
22649;BME280;11491;41.942;24.220;2023-05-02T10:18:26;90277.78;;;15.40;65.54
22649;BME280;11491;41.942;24.220;2023-05-02T10:20:56;90293.41;;;15.84;60.90
22649;BME280;11491;41.942;24.220;2023-05-02T10:23:29;90368.91;;;16.44;64.56
22649;BME280;11491;41.942;24.220;2023-05-02T10:25:57;90306.66;;;15.96;61.92
22649;BME280;11491;41.942;24.220;2023-05-02T10:28:25;90252.56;;;14.98;63.81
22649;BME280;11491;41.942;24.220;2023-05-02T10:30:52;90316.41;;;15.24;66.38
22649;BME280;11491;41.942;24.220;2023-05-02T10:33:21;90273.22;;;15.17;65.05
22649;BME280;11491;41.942;24.220;2023-05-02T10:35:48;90319.53;;;15.80;63.09
22649;BME280;11491;41.942;24.220;2023-05-02T10:38:18;90285.19;;;15.46;63.65
22649;BME280;11491;41.942;24.220;2023-05-02T10:40:52;90340.00;;;16.14;65.96
22649;BME280;11491;41.942;24.220;2023-05-02T10:43:23;90348.13;;;16.48;63.28
22649;BME280;11491;41.942;24.220;2023-05-02T10:45:51;90298.34;;;16.08;61.65
22649;BME280;11491;41.942;24.220;2023-05-02T10:48:21;90340.66;;;16.04;61.59
22649;BME280;11491;41.942;24.220;2023-05-02T10:50:50;90297.94;;;15.23;64.72
22649;BME280;11491;41.942;24.220;2023-05-02T10:53:28;90354.16;;;15.51;64.75
22649;BME280;11491;41.942;24.220;2023-05-02T10:56:13;90272.91;;;15.49;63.76
22649;BME280;11491;41.942;24.220;2023-05-02T10:58:41;90347.97;;;16.34;62.42
22649;BME280;11491;41.942;24.220;2023-05-02T11:01:33;90344.72;;;16.85;59.85
22649;BME280;11491;41.942;24.220;2023-05-02T11:04:03;90326.75;;;16.66;58.16
22649;BME280;11491;41.942;24.220;2023-05-02T11:06:31;90331.13;;;17.19;60.68
22649;BME280;11491;41.942;24.220;2023-05-02T11:09:30;90348.00;;;17.05;55.54
22649;BME280;11491;41.942;24.220;2023-05-02T11:11:59;90288.38;;;16.84;58.25
22649;BME280;11491;41.942;24.220;2023-05-02T11:14:48;90337.03;;;17.80;52.18
22649;BME280;11491;41.942;24.220;2023-05-02T11:17:15;90341.00;;;17.97;52.12
22649;BME280;11491;41.942;24.220;2023-05-02T11:22:52;90340.00;;;17.71;54.63
22649;BME280;11491;41.942;24.220;2023-05-02T11:25:33;90338.25;;;17.93;50.22
22649;BME280;11491;41.942;24.220;2023-05-02T11:28:03;90251.00;;;17.37;49.67
22649;BME280;11491;41.942;24.220;2023-05-02T11:30:43;90325.53;;;18.01;50.72
22649;BME280;11491;41.942;24.220;2023-05-02T11:33:16;90320.94;;;18.08;50.72
22649;BME280;11491;41.942;24.220;2023-05-02T11:35:46;90331.63;;;17.83;50.36
22649;BME280;11491;41.942;24.220;2023-05-02T11:38:15;90319.25;;;17.82;45.79
22649;BME280;11491;41.942;24.220;2023-05-02T11:40:53;90235.38;;;17.16;46.30
22649;BME280;11491;41.942;24.220;2023-05-02T11:43:23;90322.47;;;17.99;47.62
22649;BME280;11491;41.942;24.220;2023-05-02T11:45:51;90260.38;;;17.58;45.16
22649;BME280;11491;41.942;24.220;2023-05-02T11:48:19;90311.69;;;18.13;45.75
22649;BME280;11491;41.942;24.220;2023-05-02T11:50:48;90325.69;;;18.29;46.58
22649;BME280;11491;41.942;24.220;2023-05-02T11:53:16;90251.47;;;18.38;43.58
22649;BME280;11491;41.942;24.220;2023-05-02T11:55:44;90280.28;;;18.96;41.59
22649;BME280;11491;41.942;24.220;2023-05-02T11:58:12;90314.38;;;19.76;42.93
22649;BME280;11491;41.942;24.220;2023-05-02T12:00:41;90314.28;;;20.19;40.37
22649;BME280;11491;41.942;24.220;2023-05-02T12:03:26;90309.66;;;20.12;39.23
22649;BME280;11491;41.942;24.220;2023-05-02T12:05:54;90298.88;;;19.80;39.05
22649;BME280;11491;41.942;24.220;2023-05-02T12:08:22;90312.41;;;19.94;37.11
22649;BME280;11491;41.942;24.220;2023-05-02T12:10:51;90257.81;;;19.49;38.23
22649;BME280;11491;41.942;24.220;2023-05-02T12:13:20;90287.13;;;20.30;38.35
22649;BME280;11491;41.942;24.220;2023-05-02T12:15:49;90281.47;;;20.83;37.16
22649;BME280;11491;41.942;24.220;2023-05-02T12:18:17;90300.03;;;20.96;35.72
22649;BME280;11491;41.942;24.220;2023-05-02T12:20:45;90281.50;;;20.80;36.99
22649;BME280;11491;41.942;24.220;2023-05-02T12:23:12;90269.88;;;20.76;36.67
22649;BME280;11491;41.942;24.220;2023-05-02T12:25:40;90260.78;;;20.23;34.66
22649;BME280;11491;41.942;24.220;2023-05-02T12:28:08;90272.47;;;19.98;38.20
22649;BME280;11491;41.942;24.220;2023-05-02T12:30:46;90251.53;;;20.03;35.67
22649;BME280;11491;41.942;24.220;2023-05-02T12:33:14;90257.78;;;19.89;36.86
22649;BME280;11491;41.942;24.220;2023-05-02T12:35:42;90258.22;;;19.73;37.20
22649;BME280;11491;41.942;24.220;2023-05-02T12:38:12;90216.00;;;19.40;35.67
22649;BME280;11491;41.942;24.220;2023-05-02T12:40:57;90140.94;;;18.76;37.42
22649;BME280;11491;41.942;24.220;2023-05-02T12:43:24;90205.19;;;18.93;38.04
22649;BME280;11491;41.942;24.220;2023-05-02T12:46:08;90144.03;;;18.56;38.00
22649;BME280;11491;41.942;24.220;2023-05-02T12:48:37;90181.19;;;18.73;37.78
22649;BME280;11491;41.942;24.220;2023-05-02T12:51:04;90253.97;;;19.43;35.57
22649;BME280;11491;41.942;24.220;2023-05-02T12:53:40;90148.66;;;18.45;38.38
22649;BME280;11491;41.942;24.220;2023-05-02T12:56:08;90165.31;;;18.97;37.46
22649;BME280;11491;41.942;24.220;2023-05-02T12:58:40;90174.97;;;19.20;35.89
22649;BME280;11491;41.942;24.220;2023-05-02T13:01:07;90214.41;;;19.60;36.12
22649;BME280;11491;41.942;24.220;2023-05-02T13:03:35;90241.41;;;20.14;34.26
22649;BME280;11491;41.942;24.220;2023-05-02T13:06:04;90242.97;;;20.11;36.33
22649;BME280;11491;41.942;24.220;2023-05-02T13:08:31;90247.56;;;20.32;35.32